Time;durP1;ratioP1;P1;durP2;ratioP2;P2;SDS_P1;SDS_P2;PMS_P1;PMS_P2;Temp;Humidity;BMP_temperature;BMP_pressure;BME280_temperature;BME280_humidity;BME280_pressure;Samples;Min_cycle;Max_cycle;Signal;HPM_P1;HPM_P2
2022/06/27 00:01:37;;;;;;;;;;;14.60;99.90;;;;;;4975025;28;19977;-78
2022/06/27 00:04:03;;;;;;;;;;;14.50;99.90;;;;;;4975020;28;19957;-80
2022/06/27 00:06:29;;;;;;;;;;;14.40;99.90;;;;;;4974682;28;20386;-78
2022/06/27 00:08:54;;;;;;;;;;;14.20;99.90;;;;;;4974973;28;19914;-80
2022/06/27 00:11:21;;;;;;;;;;;13.80;99.90;;;;;;4975037;28;19919;-78
2022/06/27 00:13:47;;;;;;;;;;;13.80;99.90;;;;;;4974833;28;19921;-78
2022/06/27 00:16:13;;;;;;;;;;;13.50;99.90;;;;;;4974595;28;19915;-78
2022/06/27 00:18:39;;;;;;;;;;;13.30;99.90;;;;;;4974786;28;19918;-80
2022/06/27 00:21:04;;;;;;;;;;;13.60;99.90;;;;;;4974960;28;19910;-78
2022/06/27 00:23:30;;;;;;;;;;;13.80;99.90;;;;;;4974788;28;19914;-78
2022/06/27 00:25:56;;;;;;;;;;;13.90;99.90;;;;;;4974502;28;19910;-79
2022/06/27 00:28:21;;;;;;;;;;;13.90;99.90;;;;;;4974511;28;20434;-78
2022/06/27 00:30:47;;;;;;;;;;;14.00;99.90;;;;;;4974707;28;19917;-79
2022/06/27 00:33:12;;;;;;;;;;;13.80;99.90;;;;;;4974727;28;19914;-78
2022/06/27 00:35:38;;;;;;;;;;;13.90;99.90;;;;;;4974550;28;19921;-78
2022/06/27 00:38:03;;;;;;;;;;;13.90;99.90;;;;;;4974157;28;19952;-79
2022/06/27 00:40:29;;;;;;;;;;;13.90;99.90;;;;;;4974390;28;20306;-79
2022/06/27 00:42:55;;;;;;;;;;;13.80;99.90;;;;;;4974438;28;19911;-79
2022/06/27 00:45:20;;;;;;;;;;;13.60;99.90;;;;;;4974667;28;19910;-79
2022/06/27 00:47:46;;;;;;;;;;;13.60;99.90;;;;;;4974117;28;20358;-78
2022/06/27 00:50:11;;;;;;;;;;;13.60;99.90;;;;;;4977724;28;19922;-78
2022/06/27 00:52:37;;;;;;;;;;;13.60;99.90;;;;;;4978226;28;19965;-79
2022/06/27 00:55:03;;;;;;;;;;;13.70;99.90;;;;;;4978455;28;19917;-79
2022/06/27 00:57:30;;;;;;;;;;;13.70;99.90;;;;;;4978124;28;19910;-79
2022/06/27 00:59:55;;;;;;;;;;;13.90;99.90;;;;;;4978423;28;19910;-79
2022/06/27 01:02:21;;;;;;;;;;;14.00;99.90;;;;;;4978534;28;19917;-78
2022/06/27 01:04:47;;;;;;;;;;;14.10;99.90;;;;;;4977967;28;19911;-79
2022/06/27 01:07:12;;;;;;;;;;;14.30;99.90;;;;;;4978237;28;19937;-77
2022/06/27 01:09:39;;;;;;;;;;;14.50;99.90;;;;;;4978253;28;20401;-78
2022/06/27 01:12:05;;;;;;;;;;;14.60;99.90;;;;;;4977054;28;19954;-79
2022/06/27 01:14:30;;;;;;;;;;;14.50;99.90;;;;;;4978160;28;19957;-79
2022/06/27 01:16:57;;;;;;;;;;;14.60;99.90;;;;;;4977579;28;20004;-79
2022/06/27 01:19:22;;;;;;;;;;;14.70;99.90;;;;;;4978158;28;19918;-79
2022/06/27 01:21:49;;;;;;;;;;;14.60;99.90;;;;;;4978084;28;19910;-78
2022/06/27 01:24:15;;;;;;;;;;;14.40;99.90;;;;;;4978108;28;19965;-79
2022/06/27 01:26:41;;;;;;;;;;;14.10;99.90;;;;;;4977564;28;19957;-79
2022/06/27 01:29:07;;;;;;;;;;;14.20;99.90;;;;;;4977970;28;19910;-79
2022/06/27 01:31:34;;;;;;;;;;;14.20;99.90;;;;;;4977844;28;19950;-79
2022/06/27 01:34:00;;;;;;;;;;;14.40;99.90;;;;;;4977773;28;19920;-79
2022/06/27 01:36:43;;;;;;;;;;;14.50;99.90;;;;;;4977482;28;19997;-78
2022/06/27 01:39:10;;;;;;;;;;;14.40;99.90;;;;;;4977744;28;19917;-79
2022/06/27 01:41:37;;;;;;;;;;;14.40;99.90;;;;;;4977650;28;20336;-79
2022/06/27 01:44:03;;;;;;;;;;;14.30;99.90;;;;;;4977722;28;20405;-78
2022/06/27 01:46:55;;;;;;;;;;;14.30;99.90;;;;;;4977197;28;19996;-78
2022/06/27 01:49:21;;;;;;;;;;;14.40;99.90;;;;;;4975065;28;19914;-79
2022/06/27 01:51:47;;;;;;;;;;;14.50;99.90;;;;;;4977388;28;19940;-79
2022/06/27 01:54:14;;;;;;;;;;;14.60;99.90;;;;;;4960078;28;19929;-78
2022/06/27 01:56:40;;;;;;;;;;;14.50;99.90;;;;;;4977088;28;19953;-79
2022/06/27 01:59:06;;;;;;;;;;;14.50;99.90;;;;;;4977431;28;19910;-79
2022/06/27 02:01:32;;;;;;;;;;;14.40;99.90;;;;;;4976382;28;19911;-78
2022/06/27 02:03:59;;;;;;;;;;;14.40;99.90;;;;;;4977095;28;20371;-79
2022/06/27 02:06:25;;;;;;;;;;;14.40;99.90;;;;;;4976839;28;19914;-78
2022/06/27 02:08:52;;;;;;;;;;;14.40;99.90;;;;;;4977231;28;19917;-79
2022/06/27 02:11:19;;;;;;;;;;;14.40;99.90;;;;;;4977167;28;19969;-78
2022/06/27 02:13:44;;;;;;;;;;;14.50;99.90;;;;;;4977084;28;20437;-79
2022/06/27 02:16:14;;;;;;;;;;;14.50;99.90;;;;;;4976817;28;20009;-79
2022/06/27 02:18:40;;;;;;;;;;;14.40;99.90;;;;;;4977229;28;19917;-79
2022/06/27 02:21:13;;;;;;;;;;;14.20;99.90;;;;;;4977057;28;19910;-79
2022/06/27 02:23:38;;;;;;;;;;;14.20;99.90;;;;;;4976793;28;19910;-79
2022/06/27 02:26:06;;;;;;;;;;;14.10;99.90;;;;;;4959617;28;20287;-78
2022/06/27 02:28:32;;;;;;;;;;;14.20;99.90;;;;;;4976295;28;19976;-78
2022/06/27 02:30:58;;;;;;;;;;;14.10;99.90;;;;;;4976778;28;19956;-80
2022/06/27 02:33:25;;;;;;;;;;;14.10;99.90;;;;;;4976739;28;19914;-78
2022/06/27 02:35:52;;;;;;;;;;;14.10;99.90;;;;;;4976709;28;19997;-79
2022/06/27 02:38:18;;;;;;;;;;;14.10;99.90;;;;;;4976294;28;19917;-78
2022/06/27 02:40:46;;;;;;;;;;;14.00;99.90;;;;;;4976318;28;19910;-79
2022/06/27 02:43:13;;;;;;;;;;;13.90;99.90;;;;;;4976767;28;19910;-79
2022/06/27 02:45:39;;;;;;;;;;;14.00;99.90;;;;;;4976451;28;20294;-79
2022/06/27 02:48:05;;;;;;;;;;;14.00;99.90;;;;;;4976184;28;20323;-78
2022/06/27 02:50:32;;;;;;;;;;;13.80;99.90;;;;;;4976323;28;19926;-78
2022/06/27 02:52:59;;;;;;;;;;;14.00;99.90;;;;;;4958660;28;20287;-78
2022/06/27 02:55:31;;;;;;;;;;;13.70;99.90;;;;;;4958954;28;19914;-79
2022/06/27 02:58:00;;;;;;;;;;;13.60;99.90;;;;;;4975828;28;19917;-79
2022/06/27 03:00:27;;;;;;;;;;;13.60;99.90;;;;;;4976309;28;19918;-79
2022/06/27 03:02:53;;;;;;;;;;;13.50;99.90;;;;;;4976180;28;19911;-79
2022/06/27 03:05:19;;;;;;;;;;;13.60;99.90;;;;;;4976232;28;19920;-78
2022/06/27 03:07:45;;;;;;;;;;;13.30;99.90;;;;;;4975698;28;19910;-79
2022/06/27 03:10:11;;;;;;;;;;;13.20;99.90;;;;;;4976089;28;20278;-79
2022/06/27 03:12:37;;;;;;;;;;;13.40;99.90;;;;;;4976042;28;19933;-79
2022/06/27 03:15:02;;;;;;;;;;;13.40;99.90;;;;;;4976186;28;19914;-78
2022/06/27 03:17:28;;;;;;;;;;;13.40;99.90;;;;;;4975624;28;19917;-79
2022/06/27 03:19:54;;;;;;;;;;;13.20;99.90;;;;;;4975787;28;20009;-80
2022/06/27 03:22:20;;;;;;;;;;;13.00;99.90;;;;;;4975858;28;20004;-79
2022/06/27 03:24:45;;;;;;;;;;;12.70;99.90;;;;;;4975715;28;19948;-79
2022/06/27 03:27:11;;;;;;;;;;;12.70;99.90;;;;;;4975388;28;19910;-79
2022/06/27 03:29:37;;;;;;;;;;;12.70;99.90;;;;;;4975721;28;19910;-79
2022/06/27 03:32:03;;;;;;;;;;;12.70;99.90;;;;;;4975589;28;19914;-79
2022/06/27 03:34:29;;;;;;;;;;;12.70;99.90;;;;;;4975576;28;20390;-78
2022/06/27 03:36:55;;;;;;;;;;;12.70;99.90;;;;;;4975224;28;19910;-79
2022/06/27 03:39:20;;;;;;;;;;;12.80;99.90;;;;;;4958096;28;19914;-78
2022/06/27 03:41:46;;;;;;;;;;;12.60;99.90;;;;;;4975467;28;20000;-79
2022/06/27 03:44:11;;;;;;;;;;;12.50;99.90;;;;;;4975390;28;19921;-77
2022/06/27 03:46:37;;;;;;;;;;;12.70;99.90;;;;;;4975153;28;20290;-80
2022/06/27 03:51:47;;;;;;;;;;;12.60;99.90;;;;;;4975348;28;20028;-78
2022/06/27 03:54:13;;;;;;;;;;;12.60;99.90;;;;;;4957963;28;19950;-78
2022/06/27 03:56:39;;;;;;;;;;;12.60;99.90;;;;;;4975002;28;19957;-79
2022/06/27 03:59:05;;;;;;;;;;;12.50;99.90;;;;;;4975148;28;19914;-79
2022/06/27 04:01:30;;;;;;;;;;;12.40;99.90;;;;;;4975290;28;19910;-80
2022/06/27 04:03:56;;;;;;;;;;;12.50;99.90;;;;;;4974838;28;19914;-78
2022/06/27 04:06:21;;;;;;;;;;;12.60;99.90;;;;;;4975081;28;20371;-80
2022/06/27 04:08:47;;;;;;;;;;;12.70;99.90;;;;;;4974567;28;20010;-79
2022/06/27 04:11:13;;;;;;;;;;;12.90;99.90;;;;;;4974941;28;20436;-79
2022/06/27 04:13:38;;;;;;;;;;;12.90;99.90;;;;;;4975034;28;20374;-79
2022/06/27 04:16:04;;;;;;;;;;;13.00;99.90;;;;;;4974667;28;19910;-78
2022/06/27 04:18:30;;;;;;;;;;;13.00;99.90;;;;;;4974469;28;20298;-80
2022/06/27 04:20:56;;;;;;;;;;;12.70;99.90;;;;;;4974818;28;19910;-78
2022/06/27 04:23:21;;;;;;;;;;;12.70;99.90;;;;;;4974489;28;20452;-79
2022/06/27 04:25:47;;;;;;;;;;;12.60;99.90;;;;;;4974790;28;19957;-80
2022/06/27 04:28:13;;;;;;;;;;;12.60;99.90;;;;;;4974231;28;19937;-79
2022/06/27 04:30:41;;;;;;;;;;;12.70;99.90;;;;;;4974790;28;19910;-79
2022/06/27 04:33:07;;;;;;;;;;;12.90;99.90;;;;;;4974667;28;20375;-79
2022/06/27 04:35:33;;;;;;;;;;;12.70;99.90;;;;;;4974640;28;19914;-79
2022/06/27 04:38:00;;;;;;;;;;;12.80;99.90;;;;;;4974233;28;20405;-78
2022/06/27 04:40:26;;;;;;;;;;;13.10;99.90;;;;;;4974332;28;19918;-79
2022/06/27 04:42:51;;;;;;;;;;;13.30;99.90;;;;;;4974619;28;20282;-78
2022/06/27 04:45:18;;;;;;;;;;;13.10;99.90;;;;;;4974474;28;19921;-79
2022/06/27 04:47:44;;;;;;;;;;;12.80;99.90;;;;;;4974198;28;19922;-79
2022/06/27 04:50:11;;;;;;;;;;;12.80;99.90;;;;;;4974370;28;19922;-79
2022/06/27 04:52:40;;;;;;;;;;;12.80;99.90;;;;;;4974227;28;20009;-79
2022/06/27 04:55:10;;;;;;;;;;;12.80;99.90;;;;;;4974473;28;19917;-80
2022/06/27 04:57:37;;;;;;;;;;;12.90;99.90;;;;;;4974120;28;20298;-78
2022/06/27 05:00:04;;;;;;;;;;;13.00;99.90;;;;;;4974513;28;19918;-78
2022/06/27 05:02:29;;;;;;;;;;;13.10;99.90;;;;;;4974381;28;19910;-79
2022/06/27 05:04:55;;;;;;;;;;;13.20;99.90;;;;;;4974202;28;20286;-78
2022/06/27 05:07:22;;;;;;;;;;;13.20;99.90;;;;;;4974040;28;19910;-78
2022/06/27 05:09:47;;;;;;;;;;;13.30;99.90;;;;;;4974544;28;19910;-80
2022/06/27 05:12:13;;;;;;;;;;;13.30;99.90;;;;;;4974326;28;19921;-79
2022/06/27 05:14:39;;;;;;;;;;;13.30;99.90;;;;;;4974204;28;19950;-78
2022/06/27 05:17:04;;;;;;;;;;;13.20;99.90;;;;;;4974041;28;19961;-79
2022/06/27 05:19:30;;;;;;;;;;;13.50;99.90;;;;;;4974227;28;19910;-80
2022/06/27 05:21:56;;;;;;;;;;;13.40;99.90;;;;;;4974342;28;19977;-78
2022/06/27 05:24:21;;;;;;;;;;;13.60;99.90;;;;;;4974084;28;19921;-78
2022/06/27 05:26:47;;;;;;;;;;;13.80;99.90;;;;;;4974274;28;19910;-78
2022/06/27 05:29:13;;;;;;;;;;;13.90;99.90;;;;;;4973693;28;19920;-79
2022/06/27 05:31:39;;;;;;;;;;;14.00;99.90;;;;;;4974166;28;20378;-80
2022/06/27 05:34:05;;;;;;;;;;;14.00;99.90;;;;;;4974009;28;19917;-79
2022/06/27 05:36:30;;;;;;;;;;;14.10;99.90;;;;;;4976060;28;19910;-79
2022/06/27 05:38:56;;;;;;;;;;;14.30;99.90;;;;;;4959805;28;19917;-80
2022/06/27 05:41:22;;;;;;;;;;;14.60;99.90;;;;;;4977647;28;19910;-79
2022/06/27 05:43:48;;;;;;;;;;;14.80;99.90;;;;;;4977643;28;19914;-80
2022/06/27 05:46:13;;;;;;;;;;;14.70;99.90;;;;;;4977587;28;19914;-79
2022/06/27 05:48:39;;;;;;;;;;;14.80;99.90;;;;;;4975796;28;19917;-78
2022/06/27 05:51:05;;;;;;;;;;;15.00;99.90;;;;;;4977346;28;19926;-79
2022/06/27 05:53:32;;;;;;;;;;;15.00;99.90;;;;;;4977419;28;20005;-78
2022/06/27 05:55:58;;;;;;;;;;;15.00;99.90;;;;;;4977495;28;19932;-79
2022/06/27 05:58:24;;;;;;;;;;;15.10;99.90;;;;;;4959488;28;19986;-80
2022/06/27 06:00:50;;;;;;;;;;;15.10;99.90;;;;;;4977372;28;20334;-79
2022/06/27 06:03:16;;;;;;;;;;;15.20;99.90;;;;;;4976029;28;20331;-79
2022/06/27 06:05:42;;;;;;;;;;;14.90;99.90;;;;;;4977161;28;19914;-78
2022/06/27 06:08:08;;;;;;;;;;;14.90;99.90;;;;;;4976923;28;19916;-79
2022/06/27 06:10:34;;;;;;;;;;;14.90;99.90;;;;;;4977077;28;19945;-78
2022/06/27 06:13:01;;;;;;;;;;;14.90;99.90;;;;;;4977189;28;19949;-80
2022/06/27 06:15:27;;;;;;;;;;;14.90;99.90;;;;;;4976960;28;19911;-79
2022/06/27 06:17:54;;;;;;;;;;;14.80;99.90;;;;;;4976751;28;19997;-79
2022/06/27 06:20:20;;;;;;;;;;;14.80;99.90;;;;;;4977055;28;19917;-79
2022/06/27 06:22:46;;;;;;;;;;;14.90;99.90;;;;;;4976976;28;19910;-79
2022/06/27 06:25:12;;;;;;;;;;;14.80;99.90;;;;;;4959508;28;20049;-80
2022/06/27 06:27:38;;;;;;;;;;;14.80;99.90;;;;;;4976395;28;19910;-80
2022/06/27 06:30:07;;;;;;;;;;;15.00;99.90;;;;;;4976926;28;19914;-79
2022/06/27 06:32:34;;;;;;;;;;;15.00;99.90;;;;;;4976757;28;19910;-79
2022/06/27 06:35:00;;;;;;;;;;;15.10;99.90;;;;;;4976987;28;20017;-78
2022/06/27 06:37:27;;;;;;;;;;;15.10;99.90;;;;;;4976452;28;19914;-78
2022/06/27 06:39:53;;;;;;;;;;;15.30;99.90;;;;;;4976491;28;20010;-80
2022/06/27 06:42:19;;;;;;;;;;;15.50;99.90;;;;;;4976715;28;20286;-78
2022/06/27 06:44:45;;;;;;;;;;;15.60;99.90;;;;;;4976523;28;19914;-79
2022/06/27 06:47:12;;;;;;;;;;;15.40;99.90;;;;;;4976210;28;20267;-79
2022/06/27 06:49:39;;;;;;;;;;;15.70;99.90;;;;;;4956951;29;20399;-80
2022/06/27 06:52:05;;;;;;;;;;;15.90;99.90;;;;;;4957010;29;19906;-80
2022/06/27 06:54:31;;;;;;;;;;;15.90;99.90;;;;;;4957127;29;20364;-79
2022/06/27 06:56:58;;;;;;;;;;;15.90;99.90;;;;;;4957103;29;19910;-80
2022/06/27 06:59:23;;;;;;;;;;;15.90;99.90;;;;;;4973723;28;20306;-78
2022/06/27 07:01:51;;;;;;;;;;;16.10;99.90;;;;;;4975446;28;20129;-78
2022/06/27 07:04:17;;;;;;;;;;;16.10;99.90;;;;;;4975973;28;19915;-80
2022/06/27 07:06:43;;;;;;;;;;;16.20;99.90;;;;;;4976136;28;19921;-80
2022/06/27 07:09:09;;;;;;;;;;;16.20;99.90;;;;;;4975713;28;19910;-79
2022/06/27 07:11:40;;;;;;;;;;;16.40;99.90;;;;;;4976129;28;19914;-78
2022/06/27 07:14:06;;;;;;;;;;;16.60;99.90;;;;;;4975965;28;20322;-80
2022/06/27 07:16:31;;;;;;;;;;;16.60;99.90;;;;;;4975868;28;19910;-78
2022/06/27 07:18:58;;;;;;;;;;;16.50;99.90;;;;;;4975451;28;19917;-79
2022/06/27 07:21:26;;;;;;;;;;;16.70;99.90;;;;;;4975966;28;20013;-80
2022/06/27 07:23:52;;;;;;;;;;;16.80;99.90;;;;;;4975731;28;19957;-79
2022/06/27 07:26:19;;;;;;;;;;;16.70;99.90;;;;;;4975871;28;20339;-79
2022/06/27 07:28:45;;;;;;;;;;;16.80;99.90;;;;;;4975157;28;19909;-78
2022/06/27 07:31:12;;;;;;;;;;;17.00;99.90;;;;;;4975732;28;20378;-79
2022/06/27 07:33:39;;;;;;;;;;;17.20;99.90;;;;;;4975760;28;19910;-80
2022/06/27 07:36:06;;;;;;;;;;;17.20;99.90;;;;;;4975589;28;20382;-80
2022/06/27 07:38:38;;;;;;;;;;;17.30;99.90;;;;;;4975022;28;19917;-80
2022/06/27 07:41:06;;;;;;;;;;;17.40;99.90;;;;;;4975432;28;19956;-79
2022/06/27 07:43:33;;;;;;;;;;;17.70;99.90;;;;;;4975566;28;19914;-80
2022/06/27 07:46:00;;;;;;;;;;;17.90;99.90;;;;;;4975326;28;20012;-80
2022/06/27 07:48:25;;;;;;;;;;;18.30;99.90;;;;;;4975061;28;20322;-79
2022/06/27 07:50:51;;;;;;;;;;;20.40;99.90;;;;;;4975102;28;20009;-80
2022/06/27 07:53:19;;;;;;;;;;;23.50;99.90;;;;;;4975334;28;19914;-80
2022/06/27 07:55:46;;;;;;;;;;;26.00;92.80;;;;;;4975292;28;19957;-80
2022/06/27 07:58:14;;;;;;;;;;;27.60;85.30;;;;;;4956952;28;19917;-79
2022/06/27 08:00:41;;;;;;;;;;;28.30;71.90;;;;;;4975281;28;19977;-81
2022/06/27 08:05:53;;;;;;;;;;;27.90;64.80;;;;;;4974784;28;19921;-80
2022/06/27 08:08:21;;;;;;;;;;;27.40;64.00;;;;;;4957410;28;19989;-81
2022/06/27 08:10:47;;;;;;;;;;;28.10;63.10;;;;;;4974992;28;19910;-80
2022/06/27 08:13:13;;;;;;;;;;;28.50;60.00;;;;;;4974965;28;20282;-81
2022/06/27 08:15:40;;;;;;;;;;;28.30;60.00;;;;;;4974836;28;19910;-79
2022/06/27 08:18:07;;;;;;;;;;;27.90;59.30;;;;;;4974581;28;20361;-80
2022/06/27 08:20:34;;;;;;;;;;;26.70;63.50;;;;;;4975008;28;19969;-79
2022/06/27 08:23:00;;;;;;;;;;;26.50;61.70;;;;;;4974882;28;19912;-81
2022/06/27 08:25:25;;;;;;;;;;;26.80;61.70;;;;;;4974728;28;19915;-80
2022/06/27 08:27:51;;;;;;;;;;;26.20;61.00;;;;;;4974350;28;19910;-79
2022/06/27 08:30:17;;;;;;;;;;;26.00;63.10;;;;;;4974730;28;19999;-79
2022/06/27 08:32:43;;;;;;;;;;;26.00;62.80;;;;;;4974816;28;19914;-80
2022/06/27 08:35:09;;;;;;;;;;;25.90;64.40;;;;;;4974693;28;19961;-80
2022/06/27 08:37:34;;;;;;;;;;;26.10;61.60;;;;;;4974848;28;19914;-79
2022/06/27 08:40:01;;;;;;;;;;;26.00;62.80;;;;;;4974192;28;20421;-80
2022/06/27 08:42:28;;;;;;;;;;;26.00;63.80;;;;;;4974657;28;19910;-80
2022/06/27 08:44:55;;;;;;;;;;;26.30;62.70;;;;;;4974573;28;19925;-80
2022/06/27 08:47:21;;;;;;;;;;;26.30;63.90;;;;;;4974741;28;19914;-80
2022/06/27 08:49:52;;;;;;;;;;;26.80;62.90;;;;;;4973983;28;19918;-81
2022/06/27 08:52:18;;;;;;;;;;;26.10;62.30;;;;;;4974229;28;19922;-81
2022/06/27 08:54:45;;;;;;;;;;;26.10;62.70;;;;;;4974635;28;20322;-81
2022/06/27 08:57:11;;;;;;;;;;;25.70;62.70;;;;;;4974422;28;19910;-80
2022/06/27 08:59:37;;;;;;;;;;;24.40;64.80;;;;;;4974178;28;19917;-81
2022/06/27 09:02:03;;;;;;;;;;;23.60;69.40;;;;;;4974434;28;19911;-79
2022/06/27 09:04:30;;;;;;;;;;;24.20;68.50;;;;;;4974163;28;19914;-81
2022/06/27 09:06:56;;;;;;;;;;;25.30;67.30;;;;;;4974439;28;20286;-79
2022/06/27 09:09:27;;;;;;;;;;;25.80;63.90;;;;;;4974164;28;19910;-81
2022/06/27 09:11:54;;;;;;;;;;;25.90;64.10;;;;;;4978490;28;19942;-80
2022/06/27 09:14:43;;;;;;;;;;;26.20;64.30;;;;;;4978196;28;19917;-81
2022/06/27 09:17:10;;;;;;;;;;;26.30;63.10;;;;;;4978260;28;19918;-82
2022/06/27 09:19:45;;;;;;;;;;;26.10;62.30;;;;;;4977572;28;19910;-80
2022/06/27 09:22:14;;;;;;;;;;;26.80;62.20;;;;;;4978089;28;19944;-79
2022/06/27 09:24:56;;;;;;;;;;;26.80;62.20;;;;;;4978009;28;20494;-79
2022/06/27 09:27:35;;;;;;;;;;;26.10;62.90;;;;;;4978150;28;19914;-79
2022/06/27 09:30:21;;;;;;;;;;;26.20;63.50;;;;;;4977481;28;19917;-79
2022/06/27 09:32:49;;;;;;;;;;;27.20;60.20;;;;;;4978040;28;19950;-79
2022/06/27 09:35:25;;;;;;;;;;;26.90;59.20;;;;;;4977828;28;20390;-80
2022/06/27 09:37:52;;;;;;;;;;;25.30;60.30;;;;;;4977659;28;19910;-81
2022/06/27 09:40:18;;;;;;;;;;;26.10;62.70;;;;;;4977516;28;19917;-80
2022/06/27 09:42:46;;;;;;;;;;;25.70;62.20;;;;;;4977759;28;19914;-79
2022/06/27 09:45:13;;;;;;;;;;;25.20;63.10;;;;;;4977639;28;19921;-79
2022/06/27 09:47:38;;;;;;;;;;;25.50;63.20;;;;;;4977591;28;20414;-80
2022/06/27 09:50:04;;;;;;;;;;;26.80;60.80;;;;;;4976973;28;19926;-80
2022/06/27 09:52:30;;;;;;;;;;;25.60;61.40;;;;;;4977291;28;19961;-79
2022/06/27 09:54:56;;;;;;;;;;;24.60;65.20;;;;;;4977364;28;19957;-79
2022/06/27 09:57:21;;;;;;;;;;;23.40;70.40;;;;;;4977529;28;19910;-80
2022/06/27 09:59:48;;;;;;;;;;;22.70;76.10;;;;;;4976921;28;20386;-80
2022/06/27 10:02:16;;;;;;;;;;;21.70;87.00;;;;;;4977353;28;19915;-79
2022/06/27 10:04:45;;;;;;;;;;;21.10;91.10;;;;;;4977063;28;19957;-78
2022/06/27 10:07:11;;;;;;;;;;;20.90;93.20;;;;;;4977303;28;19917;-79
2022/06/27 10:09:37;;;;;;;;;;;20.90;93.40;;;;;;4959427;28;20267;-78
2022/06/27 10:12:24;;;;;;;;;;;21.10;93.70;;;;;;4977251;28;19964;-79
2022/06/27 10:15:08;;;;;;;;;;;21.20;93.60;;;;;;4977061;28;19918;-80
2022/06/27 10:17:35;;;;;;;;;;;22.90;90.50;;;;;;4976842;28;19922;-79
2022/06/27 10:20:05;;;;;;;;;;;24.60;78.50;;;;;;4976638;28;19937;-80
2022/06/27 10:22:31;;;;;;;;;;;25.30;75.30;;;;;;4976243;28;19910;-80
2022/06/27 10:25:16;;;;;;;;;;;25.40;72.60;;;;;;4976977;28;19964;-80
2022/06/27 10:27:42;;;;;;;;;;;26.30;66.00;;;;;;4976639;28;19937;-81
2022/06/27 10:30:33;;;;;;;;;;;26.70;65.10;;;;;;4976439;28;19911;-81
2022/06/27 10:32:59;;;;;;;;;;;27.40;64.90;;;;;;4974628;28;19911;-80
2022/06/27 10:35:25;;;;;;;;;;;27.20;62.30;;;;;;4976732;28;19917;-81
2022/06/27 10:37:50;;;;;;;;;;;27.70;61.10;;;;;;4976714;28;19985;-79
2022/06/27 10:40:19;;;;;;;;;;;28.00;61.10;;;;;;4976167;28;19917;-81
2022/06/27 10:42:45;;;;;;;;;;;28.20;59.20;;;;;;4959262;28;19914;-81
2022/06/27 10:45:20;;;;;;;;;;;27.70;59.40;;;;;;4976631;28;20295;-79
2022/06/27 10:47:49;;;;;;;;;;;27.30;59.00;;;;;;4976504;28;19984;-79
2022/06/27 10:50:16;;;;;;;;;;;28.60;58.60;;;;;;4976034;28;20048;-79
2022/06/27 10:52:41;;;;;;;;;;;27.90;57.80;;;;;;4976172;28;19917;-80
2022/06/27 10:55:23;;;;;;;;;;;26.00;59.70;;;;;;4959106;28;19910;-79
2022/06/27 10:57:49;;;;;;;;;;;24.70;63.30;;;;;;4976337;28;19910;-80
2022/06/27 11:00:34;;;;;;;;;;;24.00;66.50;;;;;;4975915;28;19910;-79
2022/06/27 11:03:00;;;;;;;;;;;23.50;68.70;;;;;;4976208;28;19910;-80
2022/06/27 11:05:26;;;;;;;;;;;22.70;77.70;;;;;;4976255;28;19914;-79
2022/06/27 11:07:55;;;;;;;;;;;22.40;81.80;;;;;;4958811;28;19941;-80
2022/06/27 11:10:21;;;;;;;;;;;22.10;83.30;;;;;;4975720;28;19910;-80
2022/06/27 11:12:46;;;;;;;;;;;22.00;83.10;;;;;;4958696;28;19910;-79
2022/06/27 11:15:12;;;;;;;;;;;22.20;81.40;;;;;;4976020;28;19916;-80
2022/06/27 11:17:42;;;;;;;;;;;22.60;79.80;;;;;;4975943;28;19976;-80
2022/06/27 11:20:11;;;;;;;;;;;23.20;77.60;;;;;;4975506;28;19910;-79
2022/06/27 11:22:41;;;;;;;;;;;23.30;75.00;;;;;;4958565;28;20326;-79
2022/06/27 11:25:07;;;;;;;;;;;24.00;74.30;;;;;;4975785;28;19949;-80
2022/06/27 11:27:44;;;;;;;;;;;24.30;72.70;;;;;;4975707;28;19957;-79
2022/06/27 11:32:54;;;;;;;;;;;23.10;74.60;;;;;;4975092;28;19960;-80
2022/06/27 11:35:20;;;;;;;;;;;22.40;77.80;;;;;;4975365;28;19945;-80
2022/06/27 11:37:46;;;;;;;;;;;21.90;81.20;;;;;;4975212;28;19917;-79
2022/06/27 11:40:11;;;;;;;;;;;21.20;91.80;;;;;;4959965;28;19945;-80
2022/06/27 11:42:40;;;;;;;;;;;20.20;99.90;;;;;;4956312;29;20335;-80
2022/06/27 11:45:06;;;;;;;;;;;19.20;99.90;;;;;;4956123;29;19921;-79
2022/06/27 11:47:33;;;;;;;;;;;18.50;99.90;;;;;;4956121;29;19911;-79
2022/06/27 11:50:12;;;;;;;;;;;18.40;99.90;;;;;;4955505;28;19923;-80
2022/06/27 11:52:41;;;;;;;;;;;18.80;99.90;;;;;;4955714;29;19910;-78
2022/06/27 11:55:08;;;;;;;;;;;18.80;99.90;;;;;;4955999;28;19910;-80
2022/06/27 11:57:33;;;;;;;;;;;18.80;99.90;;;;;;4955891;29;19914;-79
2022/06/27 12:00:03;;;;;;;;;;;19.40;99.90;;;;;;4955532;28;19944;-79
2022/06/27 12:02:29;;;;;;;;;;;20.20;99.90;;;;;;4955961;29;19958;-78
2022/06/27 12:05:05;;;;;;;;;;;20.90;99.90;;;;;;4955731;29;20009;-80
2022/06/27 12:07:31;;;;;;;;;;;21.40;99.90;;;;;;4955731;29;19946;-79
2022/06/27 12:09:56;;;;;;;;;;;22.10;99.90;;;;;;4955484;28;19969;-79
2022/06/27 12:12:26;;;;;;;;;;;22.40;99.90;;;;;;4955738;28;20379;-80
2022/06/27 12:14:52;;;;;;;;;;;23.20;99.90;;;;;;4955649;29;19914;-79
2022/06/27 12:17:18;;;;;;;;;;;23.80;99.90;;;;;;4955634;29;19986;-80
2022/06/27 12:19:44;;;;;;;;;;;24.00;99.90;;;;;;4955342;28;20343;-79
2022/06/27 12:22:12;;;;;;;;;;;24.70;99.90;;;;;;4955582;28;19910;-80
2022/06/27 12:24:38;;;;;;;;;;;26.10;89.90;;;;;;4955695;29;19915;-80
2022/06/27 12:27:04;;;;;;;;;;;26.60;83.50;;;;;;4955396;28;19914;-79
2022/06/27 12:29:31;;;;;;;;;;;27.40;78.50;;;;;;4937939;29;20401;-79
2022/06/27 12:31:56;;;;;;;;;;;28.00;72.80;;;;;;4955460;29;19916;-80
2022/06/27 12:34:22;;;;;;;;;;;28.20;74.00;;;;;;4955430;29;19911;-79
2022/06/27 12:36:48;;;;;;;;;;;28.50;67.10;;;;;;4955460;29;20387;-79
2022/06/27 12:39:13;;;;;;;;;;;28.40;65.00;;;;;;4955056;28;19910;-80
2022/06/27 12:41:39;;;;;;;;;;;28.30;64.40;;;;;;4955519;28;20390;-79
2022/06/27 12:44:05;;;;;;;;;;;28.10;65.00;;;;;;4955037;28;19911;-81
2022/06/27 12:46:31;;;;;;;;;;;28.50;65.00;;;;;;4955123;28;20375;-80
2022/06/27 12:48:56;;;;;;;;;;;29.20;66.10;;;;;;4954987;28;19915;-79
2022/06/27 12:51:23;;;;;;;;;;;30.80;61.20;;;;;;4954910;28;20514;-81
2022/06/27 12:53:49;;;;;;;;;;;30.10;60.10;;;;;;4955252;29;19918;-81
2022/06/27 12:56:15;;;;;;;;;;;29.70;60.40;;;;;;4955238;29;19910;-79
2022/06/27 12:58:40;;;;;;;;;;;29.20;62.70;;;;;;4954953;28;19918;-81
2022/06/27 13:01:06;;;;;;;;;;;30.30;60.20;;;;;;4955176;29;19911;-80
2022/06/27 13:03:32;;;;;;;;;;;30.10;61.10;;;;;;4955006;29;20427;-81
2022/06/27 13:05:58;;;;;;;;;;;28.80;60.10;;;;;;4955126;29;19915;-80
2022/06/27 13:08:23;;;;;;;;;;;27.20;63.60;;;;;;4955061;29;19980;-79
2022/06/27 13:10:49;;;;;;;;;;;27.70;62.60;;;;;;4954688;28;20014;-80
2022/06/27 13:13:15;;;;;;;;;;;26.50;63.70;;;;;;4955041;29;19954;-80
2022/06/27 13:15:40;;;;;;;;;;;25.30;68.80;;;;;;4955138;29;19911;-80
2022/06/27 13:18:06;;;;;;;;;;;24.90;72.10;;;;;;4955039;29;19910;-79
2022/06/27 13:20:33;;;;;;;;;;;24.10;75.00;;;;;;4954555;28;20391;-80
2022/06/27 13:22:58;;;;;;;;;;;23.20;82.50;;;;;;4954966;29;19961;-79
2022/06/27 13:25:24;;;;;;;;;;;22.40;88.40;;;;;;4954859;28;20020;-80
2022/06/27 13:27:50;;;;;;;;;;;22.00;90.50;;;;;;4937518;29;20264;-79
2022/06/27 13:30:16;;;;;;;;;;;21.80;92.10;;;;;;4954530;28;20017;-80
2022/06/27 13:32:42;;;;;;;;;;;21.50;93.20;;;;;;4954856;28;20046;-80
2022/06/27 13:35:08;;;;;;;;;;;21.30;94.80;;;;;;4954911;28;19941;-79
2022/06/27 13:37:33;;;;;;;;;;;21.40;96.10;;;;;;4954760;29;19914;-80
2022/06/27 13:39:59;;;;;;;;;;;21.50;96.20;;;;;;4954445;28;20021;-80
2022/06/27 13:42:25;;;;;;;;;;;21.60;97.00;;;;;;4954762;29;20272;-79
2022/06/27 13:44:50;;;;;;;;;;;21.80;95.20;;;;;;4954847;29;20379;-78
2022/06/27 13:47:16;;;;;;;;;;;22.40;94.10;;;;;;4954676;29;20434;-79
2022/06/27 13:49:42;;;;;;;;;;;23.20;91.70;;;;;;4954269;28;20418;-80
2022/06/27 13:52:07;;;;;;;;;;;23.50;89.70;;;;;;4954632;29;19917;-80
2022/06/27 13:54:33;;;;;;;;;;;24.10;85.90;;;;;;4954693;29;19918;-80
2022/06/27 13:56:59;;;;;;;;;;;24.40;80.00;;;;;;4955883;28;19910;-80
2022/06/27 13:59:24;;;;;;;;;;;24.00;78.30;;;;;;4962511;28;19911;-81
2022/06/27 14:01:50;;;;;;;;;;;24.10;78.70;;;;;;4977469;28;19910;-80
2022/06/27 14:04:16;;;;;;;;;;;24.30;78.90;;;;;;4977037;28;19910;-80
2022/06/27 14:09:26;;;;;;;;;;;23.80;75.10;;;;;;4977087;28;19956;-80
2022/06/27 14:11:52;;;;;;;;;;;23.50;76.40;;;;;;4977290;28;19917;-80
2022/06/27 14:14:17;;;;;;;;;;;22.60;78.40;;;;;;4977218;28;19911;-79
2022/06/27 14:16:43;;;;;;;;;;;22.20;81.40;;;;;;4976809;28;19910;-80
2022/06/27 14:19:10;;;;;;;;;;;21.80;84.00;;;;;;4959483;28;19910;-79
2022/06/27 14:21:36;;;;;;;;;;;21.70;87.80;;;;;;4977058;28;19910;-79
2022/06/27 14:24:01;;;;;;;;;;;21.80;88.50;;;;;;4977040;28;19910;-79
2022/06/27 14:26:27;;;;;;;;;;;21.60;85.70;;;;;;4976976;28;19918;-79